^^
Daily Summary for April 10, 2022 Units:  Both    English   Metric
Daily Weekly Monthly Yearly Custom
  High: Low: Average:
Temperature: 69.0 °F /  20.6 °C 40.0 °F /  4.4 °C 52.8 °F /  11.6 °C
Dew Point: 37.0 °F /  2.8 °C 24.0 °F /  -4.4 °C 29.5 °F /  -1.4 °C
Humidity: 71% 20% 44%
Wind Speed: 16mph /  25.7km/h - 3.1mph /  5km/h
Wind Gust: 16mph /  25.7km/h - -
Wind- - West
Pressure: 30.0 in /  1015.8 hPa 30.0 in /  1015.8 hPa -
Precipitation: 0.000 in /  0 mm    
Historical Graphs
 
 
Tabular Data for April 10, 2022
Time Temperature Dew Point Pressure Wind Wind Speed Wind Gust Humidity Rainfall Rate (Hourly) solar
00:04 46.0 °F /  7.8 °C 28.0 °F /  -2.2 °C 30.0in /  1015.8hPa Calm     49% 0.000in /  0mm 0.00 W/m2
00:09 45.0 °F /  7.2 °C 28.0 °F /  -2.2 °C 30.0in /  1015.8hPa Calm     51% 0.000in /  0mm 0.00 W/m2
00:14 45.0 °F /  7.2 °C 29.0 °F /  -1.7 °C 30.0in /  1015.8hPa Calm     52% 0.000in /  0mm 0.00 W/m2
00:19 45.0 °F /  7.2 °C 29.0 °F /  -1.7 °C 30.0in /  1015.8hPa Calm     52% 0.000in /  0mm 0.00 W/m2
00:24 45.0 °F /  7.2 °C 28.0 °F /  -2.2 °C 30.0in /  1015.8hPa Calm     52% 0.000in /  0mm 0.00 W/m2
00:29 45.0 °F /  7.2 °C 28.0 °F /  -2.2 °C 30.0in /  1015.8hPa Calm     52% 0.000in /  0mm 0.00 W/m2
00:34 45.0 °F /  7.2 °C 30.0 °F /  -1.1 °C 30.0in /  1015.8hPa Calm     56% 0.000in /  0mm 0.00 W/m2
00:39 45.0 °F /  7.2 °C 30.0 °F /  -1.1 °C 30.0in /  1015.8hPa Calm     55% 0.000in /  0mm 0.00 W/m2
00:44 45.0 °F /  7.2 °C 29.0 °F /  -1.7 °C 30.0in /  1015.8hPa Calm     53% 0.000in /  0mm 0.00 W/m2
00:49 45.0 °F /  7.2 °C 29.0 °F /  -1.7 °C 30.0in /  1015.8hPa Calm     54% 0.000in /  0mm 0.00 W/m2
00:54 45.0 °F /  7.2 °C 30.0 °F /  -1.1 °C 30.0in /  1015.8hPa Calm     55% 0.000in /  0mm 0.00 W/m2
00:59 45.0 °F /  7.2 °C 30.0 °F /  -1.1 °C 30.0in /  1015.8hPa Calm     55% 0.000in /  0mm 0.00 W/m2
01:04 45.0 °F /  7.2 °C 30.0 °F /  -1.1 °C 30.0in /  1015.8hPa Calm     56% 0.000in /  0mm 0.00 W/m2
01:09 45.0 °F /  7.2 °C 30.0 °F /  -1.1 °C 30.0in /  1015.8hPa Calm     56% 0.000in /  0mm 0.00 W/m2
01:14 45.0 °F /  7.2 °C 30.0 °F /  -1.1 °C 30.0in /  1015.8hPa Calm     56% 0.000in /  0mm 0.00 W/m2
01:19 45.0 °F /  7.2 °C 30.0 °F /  -1.1 °C 30.0in /  1015.8hPa Calm     57% 0.000in /  0mm 0.00 W/m2
01:24 45.0 °F /  7.2 °C 30.0 °F /  -1.1 °C 30.0in /  1015.8hPa Calm     58% 0.000in /  0mm 0.00 W/m2
01:29 44.0 °F /  6.7 °C 31.0 °F /  -0.6 °C 30.0in /  1015.8hPa Calm     59% 0.000in /  0mm 0.00 W/m2
01:34 44.0 °F /  6.7 °C 31.0 °F /  -0.6 °C 30.0in /  1015.8hPa Calm     60% 0.000in /  0mm 0.00 W/m2
01:39 44.0 °F /  6.7 °C 31.0 °F /  -0.6 °C 30.0in /  1015.8hPa Calm     60% 0.000in /  0mm 0.00 W/m2
01:44 44.0 °F /  6.7 °C 31.0 °F /  -0.6 °C 30.0in /  1015.8hPa Calm     60% 0.000in /  0mm 0.00 W/m2
01:49 44.0 °F /  6.7 °C 31.0 °F /  -0.6 °C 30.0in /  1015.8hPa Calm     59% 0.000in /  0mm 0.00 W/m2
01:54 44.0 °F /  6.7 °C 32.0 °F /  0 °C 30.0in /  1015.8hPa Calm     61% 0.000in /  0mm 0.00 W/m2
01:59 44.0 °F /  6.7 °C 31.0 °F /  -0.6 °C 30.0in /  1015.8hPa Calm     61% 0.000in /  0mm 0.00 W/m2
02:04 44.0 °F /  6.7 °C 31.0 °F /  -0.6 °C 30.0in /  1015.8hPa Calm     61% 0.000in /  0mm 0.00 W/m2
02:09 44.0 °F /  6.7 °C 31.0 °F /  -0.6 °C 30.0in /  1015.8hPa Calm     61% 0.000in /  0mm 0.00 W/m2
02:14 44.0 °F /  6.7 °C 31.0 °F /  -0.6 °C 30.0in /  1015.8hPa Calm     61% 0.000in /  0mm 0.00 W/m2
02:19 44.0 °F /  6.7 °C 31.0 °F /  -0.6 °C 30.0in /  1015.8hPa Calm     61% 0.000in /  0mm 0.00 W/m2
02:24 44.0 °F /  6.7 °C 31.0 °F /  -0.6 °C 30.0in /  1015.8hPa Calm     60% 0.000in /  0mm 0.00 W/m2
02:29 44.0 °F /  6.7 °C 31.0 °F /  -0.6 °C 30.0in /  1015.8hPa Calm     60% 0.000in /  0mm 0.00 W/m2
02:34 44.0 °F /  6.7 °C 31.0 °F /  -0.6 °C 30.0in /  1015.8hPa Calm     60% 0.000in /  0mm 0.00 W/m2
02:39 44.0 °F /  6.7 °C 31.0 °F /  -0.6 °C 30.0in /  1015.8hPa Calm     60% 0.000in /  0mm 0.00 W/m2
02:44 44.0 °F /  6.7 °C 31.0 °F /  -0.6 °C 30.0in /  1015.8hPa Calm     61% 0.000in /  0mm 0.00 W/m2
02:49 44.0 °F /  6.7 °C 31.0 °F /  -0.6 °C 30.0in /  1015.8hPa Calm     61% 0.000in /  0mm 0.00 W/m2
02:54 43.0 °F /  6.1 °C 31.0 °F /  -0.6 °C 30.0in /  1015.8hPa Calm     61% 0.000in /  0mm 0.00 W/m2
02:59 43.0 °F /  6.1 °C 30.0 °F /  -1.1 °C 30.0in /  1015.8hPa Calm     59% 0.000in /  0mm 0.00 W/m2
03:04 43.0 °F /  6.1 °C 30.0 °F /  -1.1 °C 30.0in /  1015.8hPa Calm     59% 0.000in /  0mm 0.00 W/m2
03:09 43.0 °F /  6.1 °C 30.0 °F /  -1.1 °C 30.0in /  1015.8hPa Calm     58% 0.000in /  0mm 0.00 W/m2
03:14 43.0 °F /  6.1 °C 30.0 °F /  -1.1 °C 30.0in /  1015.8hPa Calm     58% 0.000in /  0mm 0.00 W/m2
03:19 43.0 °F /  6.1 °C 30.0 °F /  -1.1 °C 30.0in /  1015.8hPa Calm     58% 0.000in /  0mm 0.00 W/m2
03:24 43.0 °F /  6.1 °C 29.0 °F /  -1.7 °C 30.0in /  1015.8hPa Calm     57% 0.000in /  0mm 0.00 W/m2
03:29 43.0 °F /  6.1 °C 29.0 °F /  -1.7 °C 30.0in /  1015.8hPa Calm     57% 0.000in /  0mm 0.00 W/m2
03:34 43.0 °F /  6.1 °C 29.0 °F /  -1.7 °C 30.0in /  1015.8hPa Calm     57% 0.000in /  0mm 0.00 W/m2
03:39 43.0 °F /  6.1 °C 29.0 °F /  -1.7 °C 30.0in /  1015.8hPa Calm     57% 0.000in /  0mm 0.00 W/m2
03:44 43.0 °F /  6.1 °C 30.0 °F /  -1.1 °C 30.0in /  1015.8hPa Calm     59% 0.000in /  0mm 0.00 W/m2
03:49 43.0 °F /  6.1 °C 30.0 °F /  -1.1 °C 30.0in /  1015.8hPa Calm     59% 0.000in /  0mm 0.00 W/m2
03:54 43.0 °F /  6.1 °C 30.0 °F /  -1.1 °C 30.0in /  1015.8hPa Calm     59% 0.000in /  0mm 0.00 W/m2
03:58 43.0 °F /  6.1 °C 29.0 °F /  -1.7 °C 30.0in /  1015.8hPa Calm     58% 0.000in /  0mm 0.00 W/m2
04:04 43.0 °F /  6.1 °C 29.0 °F /  -1.7 °C 30.0in /  1015.8hPa Calm     58% 0.000in /  0mm 0.00 W/m2
04:09 42.0 °F /  5.6 °C 29.0 °F /  -1.7 °C 30.0in /  1015.8hPa Calm     59% 0.000in /  0mm 0.00 W/m2
04:14 42.0 °F /  5.6 °C 29.0 °F /  -1.7 °C 30.0in /  1015.8hPa Calm     59% 0.000in /  0mm 0.00 W/m2
04:19 42.0 °F /  5.6 °C 29.0 °F /  -1.7 °C 30.0in /  1015.8hPa Calm     60% 0.000in /  0mm 0.00 W/m2
04:24 42.0 °F /  5.6 °C 29.0 °F /  -1.7 °C 30.0in /  1015.8hPa Calm     60% 0.000in /  0mm 0.00 W/m2
04:29 42.0 °F /  5.6 °C 29.0 °F /  -1.7 °C 30.0in /  1015.8hPa Calm     59% 0.000in /  0mm 0.00 W/m2
04:34 42.0 °F /  5.6 °C 29.0 °F /  -1.7 °C 30.0in /  1015.8hPa Calm     60% 0.000in /  0mm 0.00 W/m2
04:39 42.0 °F /  5.6 °C 30.0 °F /  -1.1 °C 30.0in /  1015.8hPa Calm     61% 0.000in /  0mm 0.00 W/m2
04:44 42.0 °F /  5.6 °C 30.0 °F /  -1.1 °C 30.0in /  1015.8hPa Calm     62% 0.000in /  0mm 0.00 W/m2
04:49 42.0 °F /  5.6 °C 30.0 °F /  -1.1 °C 30.0in /  1015.8hPa Calm     62% 0.000in /  0mm 0.00 W/m2
04:54 42.0 °F /  5.6 °C 29.0 °F /  -1.7 °C 30.0in /  1015.8hPa Calm     60% 0.000in /  0mm 0.00 W/m2
04:59 42.0 °F /  5.6 °C 29.0 °F /  -1.7 °C 30.0in /  1015.8hPa Calm     60% 0.000in /  0mm 0.00 W/m2
05:04 42.0 °F /  5.6 °C 29.0 °F /  -1.7 °C 30.0in /  1015.8hPa Calm     60% 0.000in /  0mm 0.00 W/m2
05:09 42.0 °F /  5.6 °C 29.0 °F /  -1.7 °C 30.0in /  1015.8hPa Calm     60% 0.000in /  0mm 0.00 W/m2
05:14 42.0 °F /  5.6 °C 29.0 °F /  -1.7 °C 30.0in /  1015.8hPa Calm     60% 0.000in /  0mm 0.00 W/m2
05:19 41.0 °F /  5 °C 29.0 °F /  -1.7 °C 30.0in /  1015.8hPa Calm     60% 0.000in /  0mm 0.00 W/m2
05:24 41.0 °F /  5 °C 28.0 °F /  -2.2 °C 30.0in /  1015.8hPa Calm     59% 0.000in /  0mm 0.00 W/m2
05:29 41.0 °F /  5 °C 28.0 °F /  -2.2 °C 30.0in /  1015.8hPa Calm     59% 0.000in /  0mm 0.00 W/m2
05:34 41.0 °F /  5 °C 28.0 °F /  -2.2 °C 30.0in /  1015.8hPa Calm     58% 0.000in /  0mm 0.00 W/m2
05:39 41.0 °F /  5 °C 28.0 °F /  -2.2 °C 30.0in /  1015.8hPa Calm     58% 0.000in /  0mm 0.00 W/m2
05:44 41.0 °F /  5 °C 27.0 °F /  -2.8 °C 30.0in /  1015.8hPa Calm     56% 0.000in /  0mm 0.00 W/m2
05:49 41.0 °F /  5 °C 27.0 °F /  -2.8 °C 30.0in /  1015.8hPa Calm     56% 0.000in /  0mm 0.00 W/m2
05:54 41.0 °F /  5 °C 26.0 °F /  -3.3 °C 30.0in /  1015.8hPa Calm     56% 0.000in /  0mm 0.00 W/m2
05:59 41.0 °F /  5 °C 27.0 °F /  -2.8 °C 30.0in /  1015.8hPa Calm     58% 0.000in /  0mm 0.00 W/m2
06:04 41.0 °F /  5 °C 28.0 °F /  -2.2 °C 30.0in /  1015.8hPa Calm     59% 0.000in /  0mm 0.00 W/m2
06:09 41.0 °F /  5 °C 27.0 °F /  -2.8 °C 30.0in /  1015.8hPa Calm     58% 0.000in /  0mm 0.00 W/m2
06:13 41.0 °F /  5 °C 28.0 °F /  -2.2 °C 30.0in /  1015.8hPa Calm     59% 0.000in /  0mm 0.00 W/m2
06:18 41.0 °F /  5 °C 27.0 °F /  -2.8 °C 30.0in /  1015.8hPa Calm     58% 0.000in /  0mm 0.00 W/m2
06:24 40.0 °F /  4.4 °C 28.0 °F /  -2.2 °C 30.0in /  1015.8hPa Calm     60% 0.000in /  0mm 0.00 W/m2
06:29 40.0 °F /  4.4 °C 28.0 °F /  -2.2 °C 30.0in /  1015.8hPa Calm     60% 0.000in /  0mm 0.00 W/m2
06:34 40.0 °F /  4.4 °C 28.0 °F /  -2.2 °C 30.0in /  1015.8hPa Calm     61% 0.000in /  0mm 0.00 W/m2
06:39 40.0 °F /  4.4 °C 28.0 °F /  -2.2 °C 30.0in /  1015.8hPa Calm     61% 0.000in /  0mm 0.00 W/m2
06:44 40.0 °F /  4.4 °C 28.0 °F /  -2.2 °C 30.0in /  1015.8hPa Calm     61% 0.000in /  0mm 7.00 W/m2
06:49 40.0 °F /  4.4 °C 27.0 °F /  -2.8 °C 30.0in /  1015.8hPa Calm     60% 0.000in /  0mm 11.00 W/m2
06:54 40.0 °F /  4.4 °C 28.0 °F /  -2.2 °C 30.0in /  1015.8hPa Calm     61% 0.000in /  0mm 14.00 W/m2
06:59 40.0 °F /  4.4 °C 27.0 °F /  -2.8 °C 30.0in /  1015.8hPa Calm     61% 0.000in /  0mm 18.00 W/m2
07:04 40.0 °F /  4.4 °C 27.0 °F /  -2.8 °C 30.0in /  1015.8hPa Calm     61% 0.000in /  0mm 25.00 W/m2
07:09 40.0 °F /  4.4 °C 27.0 °F /  -2.8 °C 30.0in /  1015.8hPa Calm     61% 0.000in /  0mm 26.00 W/m2
07:14 40.0 °F /  4.4 °C 28.0 °F /  -2.2 °C 30.0in /  1015.8hPa Calm     62% 0.000in /  0mm 28.00 W/m2
07:19 40.0 °F /  4.4 °C 28.0 °F /  -2.2 °C 30.0in /  1015.8hPa Calm     63% 0.000in /  0mm 35.00 W/m2
07:24 40.0 °F /  4.4 °C 29.0 °F /  -1.7 °C 30.0in /  1015.8hPa Calm     65% 0.000in /  0mm 35.00 W/m2
07:29 40.0 °F /  4.4 °C 28.0 °F /  -2.2 °C 30.0in /  1015.8hPa Calm     64% 0.000in /  0mm 39.00 W/m2
07:34 40.0 °F /  4.4 °C 28.0 °F /  -2.2 °C 30.0in /  1015.8hPa Calm     64% 0.000in /  0mm 40.00 W/m2
07:39 40.0 °F /  4.4 °C 29.0 °F /  -1.7 °C 30.0in /  1015.8hPa Calm     64% 0.000in /  0mm 46.00 W/m2
07:44 40.0 °F /  4.4 °C 29.0 °F /  -1.7 °C 30.0in /  1015.8hPa Calm     65% 0.000in /  0mm 51.00 W/m2
07:49 40.0 °F /  4.4 °C 30.0 °F /  -1.1 °C 30.0in /  1015.8hPa Calm     66% 0.000in /  0mm 56.00 W/m2
07:54 40.0 °F /  4.4 °C 30.0 °F /  -1.1 °C 30.0in /  1015.8hPa Calm     66% 0.000in /  0mm 62.00 W/m2
07:58 40.0 °F /  4.4 °C 30.0 °F /  -1.1 °C 30.0in /  1015.8hPa Calm     66% 0.000in /  0mm 67.00 W/m2
08:04 41.0 °F /  5 °C 31.0 °F /  -0.6 °C 30.0in /  1015.8hPa Calm     68% 0.000in /  0mm 77.00 W/m2
08:09 41.0 °F /  5 °C 32.0 °F /  0 °C 30.0in /  1015.8hPa Calm     69% 0.000in /  0mm 77.00 W/m2
08:14 41.0 °F /  5 °C 32.0 °F /  0 °C 30.0in /  1015.8hPa Calm     70% 0.000in /  0mm 79.00 W/m2
08:19 41.0 °F /  5 °C 32.0 °F /  0 °C 30.0in /  1015.8hPa Calm     70% 0.000in /  0mm 114.00 W/m2
08:24 42.0 °F /  5.6 °C 33.0 °F /  0.6 °C 30.0in /  1015.8hPa Calm     71% 0.000in /  0mm 104.00 W/m2
08:29 42.0 °F /  5.6 °C 33.0 °F /  0.6 °C 30.0in /  1015.8hPa Calm     71% 0.000in /  0mm 176.00 W/m2
08:34 43.0 °F /  6.1 °C 33.0 °F /  0.6 °C 30.0in /  1015.8hPa Calm     70% 0.000in /  0mm 213.00 W/m2
08:39 43.0 °F /  6.1 °C 34.0 °F /  1.1 °C 30.0in /  1015.8hPa Calm     70% 0.000in /  0mm 207.00 W/m2
08:44 44.0 °F /  6.7 °C 33.0 °F /  0.6 °C 30.0in /  1015.8hPa Calm     69% 0.000in /  0mm 158.00 W/m2
08:49 44.0 °F /  6.7 °C 33.0 °F /  0.6 °C 30.0in /  1015.8hPa Calm     66% 0.000in /  0mm 462.00 W/m2
08:54 45.0 °F /  7.2 °C 33.0 °F /  0.6 °C 30.0in /  1015.8hPa NNW 2mph /  3.2km/h 1mph /  1.6km/h 64% 0.000in /  0mm 489.00 W/m2
08:59 46.0 °F /  7.8 °C 31.0 °F /  -0.6 °C 30.0in /  1015.8hPa WNW 9mph /  14.5km/h 5mph /  8km/h 59% 0.000in /  0mm 506.00 W/m2
09:04 47.0 °F /  8.3 °C 31.0 °F /  -0.6 °C 30.0in /  1015.8hPa WNW 2mph /  3.2km/h 9mph /  14.5km/h 55% 0.000in /  0mm 429.00 W/m2
09:09 48.0 °F /  8.9 °C 31.0 °F /  -0.6 °C 30.0in /  1015.8hPa WNW 5mph /  8km/h 2mph /  3.2km/h 53% 0.000in /  0mm 448.00 W/m2
09:14 48.0 °F /  8.9 °C 29.0 °F /  -1.7 °C 30.0in /  1015.8hPa WNW 6mph /  9.7km/h 6mph /  9.7km/h 49% 0.000in /  0mm 485.00 W/m2
09:19 49.0 °F /  9.4 °C 29.0 °F /  -1.7 °C 30.0in /  1015.8hPa NW 6mph /  9.7km/h 6mph /  9.7km/h 46% 0.000in /  0mm 571.00 W/m2
09:24 50.0 °F /  10 °C 28.0 °F /  -2.2 °C 30.0in /  1015.8hPa WNW 6mph /  9.7km/h 6mph /  9.7km/h 44% 0.000in /  0mm 601.00 W/m2
09:29 50.0 °F /  10 °C 28.0 °F /  -2.2 °C 30.0in /  1015.8hPa NW 6mph /  9.7km/h 6mph /  9.7km/h 43% 0.000in /  0mm 596.00 W/m2
09:34 51.0 °F /  10.6 °C 28.0 °F /  -2.2 °C 30.0in /  1015.8hPa North 7mph /  11.3km/h 6mph /  9.7km/h 41% 0.000in /  0mm 557.00 W/m2
09:39 51.0 °F /  10.6 °C 28.0 °F /  -2.2 °C 30.0in /  1015.8hPa NNW 5mph /  8km/h 7mph /  11.3km/h 41% 0.000in /  0mm 434.00 W/m2
09:44 51.0 °F /  10.6 °C 28.0 °F /  -2.2 °C 30.0in /  1015.8hPa WNW 4mph /  6.4km/h 3mph /  4.8km/h 40% 0.000in /  0mm 570.00 W/m2
09:49 52.0 °F /  11.1 °C 28.0 °F /  -2.2 °C 30.0in /  1015.8hPa WNW 2mph /  3.2km/h 1mph /  1.6km/h 41% 0.000in /  0mm 594.00 W/m2
09:54 52.0 °F /  11.1 °C 28.0 °F /  -2.2 °C 30.0in /  1015.8hPa WNW 2mph /  3.2km/h 2mph /  3.2km/h 40% 0.000in /  0mm 635.00 W/m2
09:59 52.0 °F /  11.1 °C 28.0 °F /  -2.2 °C 30.0in /  1015.8hPa WNW 7mph /  11.3km/h 3mph /  4.8km/h 40% 0.000in /  0mm 601.00 W/m2
10:04 53.0 °F /  11.7 °C 27.0 °F /  -2.8 °C 30.0in /  1015.8hPa NW 6mph /  9.7km/h 7mph /  11.3km/h 38% 0.000in /  0mm 680.00 W/m2
10:09 53.0 °F /  11.7 °C 27.0 °F /  -2.8 °C 30.0in /  1015.8hPa NNW 7mph /  11.3km/h 6mph /  9.7km/h 37% 0.000in /  0mm 698.00 W/m2
10:14 54.0 °F /  12.2 °C 26.0 °F /  -3.3 °C 30.0in /  1015.8hPa WNW 7mph /  11.3km/h 7mph /  11.3km/h 35% 0.000in /  0mm 700.00 W/m2
10:19 54.0 °F /  12.2 °C 27.0 °F /  -2.8 °C 30.0in /  1015.8hPa NW 6mph /  9.7km/h 7mph /  11.3km/h 35% 0.000in /  0mm 722.00 W/m2
10:24 54.0 °F /  12.2 °C 27.0 °F /  -2.8 °C 30.0in /  1015.8hPa NNW 6mph /  9.7km/h 6mph /  9.7km/h 35% 0.000in /  0mm 691.00 W/m2
10:29 55.0 °F /  12.8 °C 28.0 °F /  -2.2 °C 30.0in /  1015.8hPa NNW 7mph /  11.3km/h 8mph /  12.9km/h 35% 0.000in /  0mm 715.00 W/m2
10:34 55.0 °F /  12.8 °C 28.0 °F /  -2.2 °C 30.0in /  1015.8hPa NW 7mph /  11.3km/h 7mph /  11.3km/h 35% 0.000in /  0mm 717.00 W/m2
10:39 56.0 °F /  13.3 °C 29.0 °F /  -1.7 °C 30.0in /  1015.8hPa WNW 7mph /  11.3km/h 7mph /  11.3km/h 36% 0.000in /  0mm 712.00 W/m2
10:44 56.0 °F /  13.3 °C 29.0 °F /  -1.7 °C 30.0in /  1015.8hPa NNW 7mph /  11.3km/h 4mph /  6.4km/h 36% 0.000in /  0mm 708.00 W/m2
10:49 56.0 °F /  13.3 °C 27.0 °F /  -2.8 °C 30.0in /  1015.8hPa NW 9mph /  14.5km/h 7mph /  11.3km/h 32% 0.000in /  0mm 722.00 W/m2
10:54 56.0 °F /  13.3 °C 26.0 °F /  -3.3 °C 30.0in /  1015.8hPa NW 7mph /  11.3km/h 6mph /  9.7km/h 31% 0.000in /  0mm 714.00 W/m2
10:59 56.0 °F /  13.3 °C 25.0 °F /  -3.9 °C 30.0in /  1015.8hPa NW 13mph /  20.9km/h 12mph /  19.3km/h 30% 0.000in /  0mm 707.00 W/m2
11:04 57.0 °F /  13.9 °C 26.0 °F /  -3.3 °C 30.0in /  1015.8hPa NW 9mph /  14.5km/h 13mph /  20.9km/h 31% 0.000in /  0mm 615.00 W/m2
11:09 57.0 °F /  13.9 °C 27.0 °F /  -2.8 °C 30.0in /  1015.8hPa NNW 4mph /  6.4km/h 9mph /  14.5km/h 32% 0.000in /  0mm 615.00 W/m2
11:14 57.0 °F /  13.9 °C 28.0 °F /  -2.2 °C 30.0in /  1015.8hPa SW 6mph /  9.7km/h 3mph /  4.8km/h 33% 0.000in /  0mm 752.00 W/m2
11:19 57.0 °F /  13.9 °C 28.0 °F /  -2.2 °C 30.0in /  1015.8hPa NW 7mph /  11.3km/h 8mph /  12.9km/h 32% 0.000in /  0mm 751.00 W/m2
11:24 58.0 °F /  14.4 °C 28.0 °F /  -2.2 °C 30.0in /  1015.8hPa NNW 6mph /  9.7km/h 7mph /  11.3km/h 32% 0.000in /  0mm 738.00 W/m2
11:29 58.0 °F /  14.4 °C 28.0 °F /  -2.2 °C 30.0in /  1015.8hPa NNE 7mph /  11.3km/h 6mph /  9.7km/h 31% 0.000in /  0mm 712.00 W/m2
11:34 59.0 °F /  15 °C 28.0 °F /  -2.2 °C 30.0in /  1015.8hPa NE 5mph /  8km/h 7mph /  11.3km/h 31% 0.000in /  0mm 782.00 W/m2
11:39 59.0 °F /  15 °C 28.0 °F /  -2.2 °C 30.0in /  1015.8hPa North 6mph /  9.7km/h 6mph /  9.7km/h 31% 0.000in /  0mm 796.00 W/m2
11:44 59.0 °F /  15 °C 28.0 °F /  -2.2 °C 30.0in /  1015.8hPa North 7mph /  11.3km/h 4mph /  6.4km/h 30% 0.000in /  0mm 798.00 W/m2
11:49 60.0 °F /  15.6 °C 27.0 °F /  -2.8 °C 30.0in /  1015.8hPa NNW 11mph /  17.7km/h 7mph /  11.3km/h 29% 0.000in /  0mm 900.00 W/m2
11:54 60.0 °F /  15.6 °C 27.0 °F /  -2.8 °C 30.0in /  1015.8hPa NNW 12mph /  19.3km/h 10mph /  16.1km/h 28% 0.000in /  0mm 907.00 W/m2
11:59 60.0 °F /  15.6 °C 25.0 °F /  -3.9 °C 30.0in /  1015.8hPa NW 13mph /  20.9km/h 13mph /  20.9km/h 26% 0.000in /  0mm 907.00 W/m2
12:04 60.0 °F /  15.6 °C 27.0 °F /  -2.8 °C 30.0in /  1015.8hPa NNW 7mph /  11.3km/h 6mph /  9.7km/h 28% 0.000in /  0mm 907.00 W/m2
12:09 61.0 °F /  16.1 °C 28.0 °F /  -2.2 °C 30.0in /  1015.8hPa North 11mph /  17.7km/h 10mph /  16.1km/h 29% 0.000in /  0mm 926.00 W/m2
12:14 61.0 °F /  16.1 °C 27.0 °F /  -2.8 °C 30.0in /  1015.8hPa NNW 9mph /  14.5km/h 10mph /  16.1km/h 28% 0.000in /  0mm 853.00 W/m2
12:19 61.0 °F /  16.1 °C 27.0 °F /  -2.8 °C 30.0in /  1015.8hPa NW 7mph /  11.3km/h 6mph /  9.7km/h 28% 0.000in /  0mm 821.00 W/m2
12:24 61.0 °F /  16.1 °C 28.0 °F /  -2.2 °C 30.0in /  1015.8hPa NW 9mph /  14.5km/h 7mph /  11.3km/h 28% 0.000in /  0mm 851.00 W/m2
12:29 61.0 °F /  16.1 °C 28.0 °F /  -2.2 °C 30.0in /  1015.8hPa North 6mph /  9.7km/h 9mph /  14.5km/h 28% 0.000in /  0mm 821.00 W/m2
12:34 61.0 °F /  16.1 °C 28.0 °F /  -2.2 °C 30.0in /  1015.8hPa WNW 11mph /  17.7km/h 9mph /  14.5km/h 28% 0.000in /  0mm 775.00 W/m2
12:39 61.0 °F /  16.1 °C 26.0 °F /  -3.3 °C 30.0in /  1015.8hPa West 9mph /  14.5km/h 10mph /  16.1km/h 26% 0.000in /  0mm 821.00 W/m2
12:44 62.0 °F /  16.7 °C 25.0 °F /  -3.9 °C 30.0in /  1015.8hPa WNW 4mph /  6.4km/h 9mph /  14.5km/h 25% 0.000in /  0mm 802.00 W/m2
12:49 62.0 °F /  16.7 °C 28.0 °F /  -2.2 °C 30.0in /  1015.8hPa WSW 4mph /  6.4km/h 3mph /  4.8km/h 28% 0.000in /  0mm 791.00 W/m2
12:54 62.0 °F /  16.7 °C 27.0 °F /  -2.8 °C 30.0in /  1015.8hPa NNW 6mph /  9.7km/h 4mph /  6.4km/h 26% 0.000in /  0mm 956.00 W/m2
12:59 63.0 °F /  17.2 °C 28.0 °F /  -2.2 °C 30.0in /  1015.8hPa WNW 11mph /  17.7km/h 8mph /  12.9km/h 27% 0.000in /  0mm 940.00 W/m2
13:04 63.0 °F /  17.2 °C 26.0 °F /  -3.3 °C 30.0in /  1015.8hPa NW 7mph /  11.3km/h 10mph /  16.1km/h 25% 0.000in /  0mm 940.00 W/m2
13:09 63.0 °F /  17.2 °C 28.0 °F /  -2.2 °C 30.0in /  1015.8hPa NW 11mph /  17.7km/h 7mph /  11.3km/h 26% 0.000in /  0mm 752.00 W/m2
13:14 63.0 °F /  17.2 °C 27.0 °F /  -2.8 °C 30.0in /  1015.8hPa NW 7mph /  11.3km/h 10mph /  16.1km/h 25% 0.000in /  0mm 823.00 W/m2
13:19 64.0 °F /  17.8 °C 26.0 °F /  -3.3 °C 30.0in /  1015.8hPa North 16mph /  25.7km/h 11mph /  17.7km/h 24% 0.000in /  0mm 867.00 W/m2
13:24 64.0 °F /  17.8 °C 26.0 °F /  -3.3 °C 30.0in /  1015.8hPa NNW 16mph /  25.7km/h 16mph /  25.7km/h 24% 0.000in /  0mm 780.00 W/m2
13:29 64.0 °F /  17.8 °C 25.0 °F /  -3.9 °C 30.0in /  1015.8hPa NNW 7mph /  11.3km/h 5mph /  8km/h 23% 0.000in /  0mm 752.00 W/m2
13:34 64.0 °F /  17.8 °C 24.0 °F /  -4.4 °C 30.0in /  1015.8hPa NE 11mph /  17.7km/h 9mph /  14.5km/h 22% 0.000in /  0mm 752.00 W/m2
13:39 64.0 °F /  17.8 °C 26.0 °F /  -3.3 °C 30.0in /  1015.8hPa WNW 10mph /  16.1km/h 10mph /  16.1km/h 23% 0.000in /  0mm 831.00 W/m2
13:44 64.0 °F /  17.8 °C 27.0 °F /  -2.8 °C 30.0in /  1015.8hPa NNW 7mph /  11.3km/h 7mph /  11.3km/h 24% 0.000in /  0mm 802.00 W/m2
13:49 64.0 °F /  17.8 °C 27.0 °F /  -2.8 °C 30.0in /  1015.8hPa NNW 7mph /  11.3km/h 7mph /  11.3km/h 24% 0.000in /  0mm 812.00 W/m2
13:54 64.0 °F /  17.8 °C 27.0 °F /  -2.8 °C 30.0in /  1015.8hPa NNW 7mph /  11.3km/h 7mph /  11.3km/h 24% 0.000in /  0mm 868.00 W/m2
13:59 65.0 °F /  18.3 °C 28.0 °F /  -2.2 °C 30.0in /  1015.8hPa SW 9mph /  14.5km/h 6mph /  9.7km/h 25% 0.000in /  0mm 868.00 W/m2
14:04 65.0 °F /  18.3 °C 29.0 °F /  -1.7 °C 30.0in /  1015.8hPa SSW 2mph /  3.2km/h 9mph /  14.5km/h 26% 0.000in /  0mm 807.00 W/m2
14:09 65.0 °F /  18.3 °C 28.0 °F /  -2.2 °C 30.0in /  1015.8hPa NW 11mph /  17.7km/h 8mph /  12.9km/h 25% 0.000in /  0mm 828.00 W/m2
14:14 65.0 °F /  18.3 °C 27.0 °F /  -2.8 °C 30.0in /  1015.8hPa NNW 13mph /  20.9km/h 13mph /  20.9km/h 24% 0.000in /  0mm 789.00 W/m2
14:19 66.0 °F /  18.9 °C 27.0 °F /  -2.8 °C 30.0in /  1015.8hPa WNW 10mph /  16.1km/h 13mph /  20.9km/h 23% 0.000in /  0mm 870.00 W/m2
14:24 66.0 °F /  18.9 °C 29.0 °F /  -1.7 °C 30.0in /  1015.8hPa North 6mph /  9.7km/h 6mph /  9.7km/h 25% 0.000in /  0mm 904.00 W/m2
14:34 66.0 °F /  18.9 °C 27.0 °F /  -2.8 °C 30.0in /  1015.8hPa West 7mph /  11.3km/h 7mph /  11.3km/h 23% 0.000in /  0mm 738.00 W/m2
14:39 67.0 °F /  19.4 °C 29.0 °F /  -1.7 °C 30.0in /  1015.8hPa NW 6mph /  9.7km/h 6mph /  9.7km/h 24% 0.000in /  0mm 777.00 W/m2
14:44 67.0 °F /  19.4 °C 30.0 °F /  -1.1 °C 30.0in /  1015.8hPa WSW 6mph /  9.7km/h 6mph /  9.7km/h 25% 0.000in /  0mm 745.00 W/m2
14:49 67.0 °F /  19.4 °C 28.0 °F /  -2.2 °C 30.0in /  1015.8hPa NNW 7mph /  11.3km/h 6mph /  9.7km/h 23% 0.000in /  0mm 700.00 W/m2
14:54 67.0 °F /  19.4 °C 28.0 °F /  -2.2 °C 30.0in /  1015.8hPa NNW 9mph /  14.5km/h 9mph /  14.5km/h 23% 0.000in /  0mm 726.00 W/m2
14:59 67.0 °F /  19.4 °C 29.0 °F /  -1.7 °C 30.0in /  1015.8hPa NNW 14mph /  22.5km/h 14mph /  22.5km/h 24% 0.000in /  0mm 742.00 W/m2
15:04 66.0 °F /  18.9 °C 27.0 °F /  -2.8 °C 30.0in /  1015.8hPa NW 10mph /  16.1km/h 10mph /  16.1km/h 23% 0.000in /  0mm 691.00 W/m2
15:09 67.0 °F /  19.4 °C 29.0 °F /  -1.7 °C 30.0in /  1015.8hPa NW 7mph /  11.3km/h 5mph /  8km/h 24% 0.000in /  0mm 701.00 W/m2
15:14 67.0 °F /  19.4 °C 30.0 °F /  -1.1 °C 30.0in /  1015.8hPa SW 6mph /  9.7km/h 7mph /  11.3km/h 25% 0.000in /  0mm 744.00 W/m2
15:19 68.0 °F /  20 °C 30.0 °F /  -1.1 °C 30.0in /  1015.8hPa North 9mph /  14.5km/h 6mph /  9.7km/h 25% 0.000in /  0mm 719.00 W/m2
15:24 68.0 °F /  20 °C 27.0 °F /  -2.8 °C 30.0in /  1015.8hPa NW 9mph /  14.5km/h 9mph /  14.5km/h 22% 0.000in /  0mm 671.00 W/m2
15:29 68.0 °F /  20 °C 27.0 °F /  -2.8 °C 30.0in /  1015.8hPa WNW 7mph /  11.3km/h 3mph /  4.8km/h 22% 0.000in /  0mm 671.00 W/m2
15:34 68.0 °F /  20 °C 29.0 °F /  -1.7 °C 30.0in /  1015.8hPa WSW 7mph /  11.3km/h 7mph /  11.3km/h 23% 0.000in /  0mm 668.00 W/m2
15:39 68.0 °F /  20 °C 28.0 °F /  -2.2 °C 30.0in /  1015.8hPa WNW 7mph /  11.3km/h 7mph /  11.3km/h 22% 0.000in /  0mm 638.00 W/m2
15:44 68.0 °F /  20 °C 28.0 °F /  -2.2 °C 30.0in /  1015.8hPa WSW 6mph /  9.7km/h 7mph /  11.3km/h 22% 0.000in /  0mm 638.00 W/m2
15:49 69.0 °F /  20.6 °C 30.0 °F /  -1.1 °C 30.0in /  1015.8hPa NNE 7mph /  11.3km/h 4mph /  6.4km/h 24% 0.000in /  0mm 606.00 W/m2
15:54 69.0 °F /  20.6 °C 28.0 °F /  -2.2 °C 30.0in /  1015.8hPa NNW 16mph /  25.7km/h 8mph /  12.9km/h 22% 0.000in /  0mm 584.00 W/m2
15:59 69.0 °F /  20.6 °C 26.0 °F /  -3.3 °C 30.0in /  1015.8hPa NW 13mph /  20.9km/h 16mph /  25.7km/h 20% 0.000in /  0mm 578.00 W/m2
16:04 68.0 °F /  20 °C 27.0 °F /  -2.8 °C 30.0in /  1015.8hPa NW 14mph /  22.5km/h 13mph /  20.9km/h 21% 0.000in /  0mm 596.00 W/m2
16:09 68.0 °F /  20 °C 26.0 °F /  -3.3 °C 30.0in /  1015.8hPa NNW 9mph /  14.5km/h 14mph /  22.5km/h 21% 0.000in /  0mm 573.00 W/m2
16:14 68.0 °F /  20 °C 29.0 °F /  -1.7 °C 30.0in /  1015.8hPa NNW 4mph /  6.4km/h 3mph /  4.8km/h 23% 0.000in /  0mm 533.00 W/m2
16:19 68.0 °F /  20 °C 28.0 °F /  -2.2 °C 30.0in /  1015.8hPa NNW 7mph /  11.3km/h 4mph /  6.4km/h 22% 0.000in /  0mm 517.00 W/m2
16:24 68.0 °F /  20 °C 28.0 °F /  -2.2 °C 30.0in /  1015.8hPa NNW 7mph /  11.3km/h 7mph /  11.3km/h 22% 0.000in /  0mm 531.00 W/m2
16:29 68.0 °F /  20 °C 28.0 °F /  -2.2 °C 30.0in /  1015.8hPa NNW 6mph /  9.7km/h 7mph /  11.3km/h 22% 0.000in /  0mm 519.00 W/m2
16:34 68.0 °F /  20 °C 28.0 °F /  -2.2 °C 30.0in /  1015.8hPa NNW 11mph /  17.7km/h 6mph /  9.7km/h 22% 0.000in /  0mm 501.00 W/m2
16:39 68.0 °F /  20 °C 27.0 °F /  -2.8 °C 30.0in /  1015.8hPa WNW 10mph /  16.1km/h 10mph /  16.1km/h 21% 0.000in /  0mm 489.00 W/m2
16:44 68.0 °F /  20 °C 28.0 °F /  -2.2 °C 30.0in /  1015.8hPa West 6mph /  9.7km/h 6mph /  9.7km/h 22% 0.000in /  0mm 469.00 W/m2
16:49 68.0 °F /  20 °C 29.0 °F /  -1.7 °C 30.0in /  1015.8hPa NW 7mph /  11.3km/h 6mph /  9.7km/h 23% 0.000in /  0mm 454.00 W/m2
16:54 69.0 °F /  20.6 °C 29.0 °F /  -1.7 °C 30.0in /  1015.8hPa NNW 7mph /  11.3km/h 7mph /  11.3km/h 23% 0.000in /  0mm 434.00 W/m2
16:59 69.0 °F /  20.6 °C 29.0 °F /  -1.7 °C 30.0in /  1015.8hPa WNW 6mph /  9.7km/h 3mph /  4.8km/h 23% 0.000in /  0mm 422.00 W/m2
17:04 69.0 °F /  20.6 °C 28.0 °F /  -2.2 °C 30.0in /  1015.8hPa WNW 6mph /  9.7km/h 6mph /  9.7km/h 22% 0.000in /  0mm 401.00 W/m2
17:09 69.0 °F /  20.6 °C 27.0 °F /  -2.8 °C 30.0in /  1015.8hPa NW 4mph /  6.4km/h 6mph /  9.7km/h 21% 0.000in /  0mm 394.00 W/m2
17:14 69.0 °F /  20.6 °C 28.0 °F /  -2.2 °C 30.0in /  1015.8hPa NW 2mph /  3.2km/h 3mph /  4.8km/h 22% 0.000in /  0mm 385.00 W/m2
17:19 69.0 °F /  20.6 °C 26.0 °F /  -3.3 °C 30.0in /  1015.8hPa WNW 2mph /  3.2km/h 2mph /  3.2km/h 20% 0.000in /  0mm 369.00 W/m2
17:24 69.0 °F /  20.6 °C 27.0 °F /  -2.8 °C 30.0in /  1015.8hPa NW 9mph /  14.5km/h 6mph /  9.7km/h 21% 0.000in /  0mm 346.00 W/m2
17:29 68.0 °F /  20 °C 27.0 °F /  -2.8 °C 30.0in /  1015.8hPa NW 9mph /  14.5km/h 9mph /  14.5km/h 21% 0.000in /  0mm 302.00 W/m2
17:34 68.0 °F /  20 °C 27.0 °F /  -2.8 °C 30.0in /  1015.8hPa North 2mph /  3.2km/h 6mph /  9.7km/h 21% 0.000in /  0mm 70.00 W/m2
17:39 67.0 °F /  19.4 °C 25.0 °F /  -3.9 °C 30.0in /  1015.8hPa NNW 4mph /  6.4km/h 2mph /  3.2km/h 21% 0.000in /  0mm 72.00 W/m2
17:44 66.0 °F /  18.9 °C 26.0 °F /  -3.3 °C 30.0in /  1015.8hPa NW 4mph /  6.4km/h 3mph /  4.8km/h 22% 0.000in /  0mm 95.00 W/m2
17:49 66.0 °F /  18.9 °C 26.0 °F /  -3.3 °C 30.0in /  1015.8hPa NW 5mph /  8km/h 3mph /  4.8km/h 22% 0.000in /  0mm 51.00 W/m2
17:54 65.0 °F /  18.3 °C 26.0 °F /  -3.3 °C 30.0in /  1015.8hPa North 6mph /  9.7km/h 6mph /  9.7km/h 23% 0.000in /  0mm 49.00 W/m2
17:59 65.0 °F /  18.3 °C 26.0 °F /  -3.3 °C 30.0in /  1015.8hPa NW 9mph /  14.5km/h 2mph /  3.2km/h 23% 0.000in /  0mm 51.00 W/m2
18:04 65.0 °F /  18.3 °C 26.0 °F /  -3.3 °C 30.0in /  1015.8hPa NNW 4mph /  6.4km/h 9mph /  14.5km/h 23% 0.000in /  0mm 54.00 W/m2
18:09 64.0 °F /  17.8 °C 26.0 °F /  -3.3 °C 30.0in /  1015.8hPa North 9mph /  14.5km/h 4mph /  6.4km/h 23% 0.000in /  0mm 56.00 W/m2
18:14 64.0 °F /  17.8 °C 27.0 °F /  -2.8 °C 30.0in /  1015.8hPa NW 2mph /  3.2km/h 9mph /  14.5km/h 25% 0.000in /  0mm 51.00 W/m2
18:19 64.0 °F /  17.8 °C 28.0 °F /  -2.2 °C 30.0in /  1015.8hPa NNW 2mph /  3.2km/h 2mph /  3.2km/h 26% 0.000in /  0mm 46.00 W/m2
18:24 63.0 °F /  17.2 °C 28.0 °F /  -2.2 °C 30.0in /  1015.8hPa Calm   2mph /  3.2km/h 26% 0.000in /  0mm 42.00 W/m2
18:29 63.0 °F /  17.2 °C 29.0 °F /  -1.7 °C 30.0in /  1015.8hPa NNW 2mph /  3.2km/h   28% 0.000in /  0mm 39.00 W/m2
18:34 63.0 °F /  17.2 °C 29.0 °F /  -1.7 °C 30.0in /  1015.8hPa North 4mph /  6.4km/h 3mph /  4.8km/h 27% 0.000in /  0mm 35.00 W/m2
18:39 63.0 °F /  17.2 °C 29.0 °F /  -1.7 °C 30.0in /  1015.8hPa North 2mph /  3.2km/h 2mph /  3.2km/h 28% 0.000in /  0mm 32.00 W/m2
18:44 63.0 °F /  17.2 °C 29.0 °F /  -1.7 °C 30.0in /  1015.8hPa North 2mph /  3.2km/h 2mph /  3.2km/h 28% 0.000in /  0mm 30.00 W/m2
18:49 63.0 °F /  17.2 °C 31.0 °F /  -0.6 °C 30.0in /  1015.8hPa Calm     30% 0.000in /  0mm 26.00 W/m2
18:54 63.0 °F /  17.2 °C 30.0 °F /  -1.1 °C 30.0in /  1015.8hPa Calm     29% 0.000in /  0mm 25.00 W/m2
18:59 62.0 °F /  16.7 °C 30.0 °F /  -1.1 °C 30.0in /  1015.8hPa Calm     30% 0.000in /  0mm 23.00 W/m2
19:04 62.0 °F /  16.7 °C 31.0 °F /  -0.6 °C 30.0in /  1015.8hPa Calm     31% 0.000in /  0mm 19.00 W/m2
19:09 62.0 °F /  16.7 °C 30.0 °F /  -1.1 °C 30.0in /  1015.8hPa Calm     30% 0.000in /  0mm 18.00 W/m2
19:14 62.0 °F /  16.7 °C 32.0 °F /  0 °C 30.0in /  1015.8hPa Calm     33% 0.000in /  0mm 14.00 W/m2
19:19 61.0 °F /  16.1 °C 31.0 °F /  -0.6 °C 30.0in /  1015.8hPa Calm     32% 0.000in /  0mm 12.00 W/m2
19:24 61.0 °F /  16.1 °C 33.0 °F /  0.6 °C 30.0in /  1015.8hPa Calm     35% 0.000in /  0mm 11.00 W/m2
19:29 60.0 °F /  15.6 °C 32.0 °F /  0 °C 30.0in /  1015.8hPa Calm     35% 0.000in /  0mm 9.00 W/m2
19:34 60.0 °F /  15.6 °C 32.0 °F /  0 °C 30.0in /  1015.8hPa Calm     35% 0.000in /  0mm 5.00 W/m2
19:39 59.0 °F /  15 °C 32.0 °F /  0 °C 30.0in /  1015.8hPa Calm     36% 0.000in /  0mm 0.00 W/m2
19:44 59.0 °F /  15 °C 31.0 °F /  -0.6 °C 30.0in /  1015.8hPa Calm     35% 0.000in /  0mm 0.00 W/m2
19:49 58.0 °F /  14.4 °C 31.0 °F /  -0.6 °C 30.0in /  1015.8hPa Calm     36% 0.000in /  0mm 0.00 W/m2
19:54 57.0 °F /  13.9 °C 31.0 °F /  -0.6 °C 30.0in /  1015.8hPa Calm     36% 0.000in /  0mm 0.00 W/m2
19:59 57.0 °F /  13.9 °C 30.0 °F /  -1.1 °C 30.0in /  1015.8hPa Calm     37% 0.000in /  0mm 0.00 W/m2
20:04 56.0 °F /  13.3 °C 30.0 °F /  -1.1 °C 30.0in /  1015.8hPa Calm     38% 0.000in /  0mm 0.00 W/m2
20:09 55.0 °F /  12.8 °C 31.0 °F /  -0.6 °C 30.0in /  1015.8hPa Calm     39% 0.000in /  0mm 0.00 W/m2
20:14 55.0 °F /  12.8 °C 30.0 °F /  -1.1 °C 30.0in /  1015.8hPa North 2mph /  3.2km/h   39% 0.000in /  0mm 0.00 W/m2
20:19 54.0 °F /  12.2 °C 31.0 °F /  -0.6 °C 30.0in /  1015.8hPa WSW 2mph /  3.2km/h 2mph /  3.2km/h 41% 0.000in /  0mm 0.00 W/m2
20:29 54.0 °F /  12.2 °C 32.0 °F /  0 °C 30.0in /  1015.8hPa Calm     43% 0.000in /  0mm 0.00 W/m2
20:34 54.0 °F /  12.2 °C 32.0 °F /  0 °C 30.0in /  1015.8hPa Calm     44% 0.000in /  0mm 0.00 W/m2
20:39 54.0 °F /  12.2 °C 33.0 °F /  0.6 °C 30.0in /  1015.8hPa Calm     45% 0.000in /  0mm 0.00 W/m2
20:44 54.0 °F /  12.2 °C 33.0 °F /  0.6 °C 30.0in /  1015.8hPa Calm     45% 0.000in /  0mm 0.00 W/m2
20:49 53.0 °F /  11.7 °C 33.0 °F /  0.6 °C 30.0in /  1015.8hPa Calm     46% 0.000in /  0mm 0.00 W/m2
20:54 53.0 °F /  11.7 °C 34.0 °F /  1.1 °C 30.0in /  1015.8hPa Calm     47% 0.000in /  0mm 0.00 W/m2
20:59 53.0 °F /  11.7 °C 34.0 °F /  1.1 °C 30.0in /  1015.8hPa Calm     49% 0.000in /  0mm 0.00 W/m2
21:04 53.0 °F /  11.7 °C 34.0 °F /  1.1 °C 30.0in /  1015.8hPa Calm     50% 0.000in /  0mm 0.00 W/m2
21:09 52.0 °F /  11.1 °C 35.0 °F /  1.7 °C 30.0in /  1015.8hPa Calm     51% 0.000in /  0mm 0.00 W/m2
21:14 52.0 °F /  11.1 °C 35.0 °F /  1.7 °C 30.0in /  1015.8hPa Calm     52% 0.000in /  0mm 0.00 W/m2
21:19 52.0 °F /  11.1 °C 35.0 °F /  1.7 °C 30.0in /  1015.8hPa Calm     52% 0.000in /  0mm 0.00 W/m2
21:24 51.0 °F /  10.6 °C 34.0 °F /  1.1 °C 30.0in /  1015.8hPa Calm     52% 0.000in /  0mm 0.00 W/m2
21:29 51.0 °F /  10.6 °C 34.0 °F /  1.1 °C 30.0in /  1015.8hPa Calm     52% 0.000in /  0mm 0.00 W/m2
21:34 51.0 °F /  10.6 °C 33.0 °F /  0.6 °C 30.0in /  1015.8hPa Calm     51% 0.000in /  0mm 0.00 W/m2
21:39 51.0 °F /  10.6 °C 33.0 °F /  0.6 °C 30.0in /  1015.8hPa SW 2mph /  3.2km/h   51% 0.000in /  0mm 0.00 W/m2
21:44 51.0 °F /  10.6 °C 33.0 °F /  0.6 °C 30.0in /  1015.8hPa SW 2mph /  3.2km/h 2mph /  3.2km/h 51% 0.000in /  0mm 0.00 W/m2
21:49 51.0 °F /  10.6 °C 34.0 °F /  1.1 °C 30.0in /  1015.8hPa SW 2mph /  3.2km/h 2mph /  3.2km/h 52% 0.000in /  0mm 0.00 W/m2
21:53 51.0 °F /  10.6 °C 34.0 °F /  1.1 °C 30.0in /  1015.8hPa Calm   2mph /  3.2km/h 53% 0.000in /  0mm 0.00 W/m2
21:59 51.0 °F /  10.6 °C 34.0 °F /  1.1 °C 30.0in /  1015.8hPa Calm     53% 0.000in /  0mm 0.00 W/m2
22:04 50.0 °F /  10 °C 34.0 °F /  1.1 °C 30.0in /  1015.8hPa Calm     54% 0.000in /  0mm 0.00 W/m2
22:09 50.0 °F /  10 °C 34.0 °F /  1.1 °C 30.0in /  1015.8hPa Calm     54% 0.000in /  0mm 0.00 W/m2
22:19 50.0 °F /  10 °C 35.0 °F /  1.7 °C 30.0in /  1015.8hPa Calm     56% 0.000in /  0mm 0.00 W/m2
22:22 50.0 °F /  10 °C 35.0 °F /  1.7 °C 30.0in /  1015.8hPa Calm     57% 0.000in /  0mm 0.00 W/m2
22:29 50.0 °F /  10 °C 35.0 °F /  1.7 °C 30.0in /  1015.8hPa Calm     57% 0.000in /  0mm 0.00 W/m2
22:34 49.0 °F /  9.4 °C 35.0 °F /  1.7 °C 30.0in /  1015.8hPa SW 2mph /  3.2km/h   58% 0.000in /  0mm 0.00 W/m2
22:39 49.0 °F /  9.4 °C 35.0 °F /  1.7 °C 30.0in /  1015.8hPa Calm   2mph /  3.2km/h 59% 0.000in /  0mm 0.00 W/m2
22:44 49.0 °F /  9.4 °C 36.0 °F /  2.2 °C 30.0in /  1015.8hPa Calm     61% 0.000in /  0mm 0.00 W/m2
22:49 49.0 °F /  9.4 °C 36.0 °F /  2.2 °C 30.0in /  1015.8hPa Calm     60% 0.000in /  0mm 0.00 W/m2
22:54 49.0 °F /  9.4 °C 36.0 °F /  2.2 °C 30.0in /  1015.8hPa Calm     61% 0.000in /  0mm 0.00 W/m2
22:59 49.0 °F /  9.4 °C 36.0 °F /  2.2 °C 30.0in /  1015.8hPa Calm     62% 0.000in /  0mm 0.00 W/m2
23:04 49.0 °F /  9.4 °C 37.0 °F /  2.8 °C 30.0in /  1015.8hPa Calm     63% 0.000in /  0mm 0.00 W/m2
23:09 49.0 °F /  9.4 °C 37.0 °F /  2.8 °C 30.0in /  1015.8hPa Calm     63% 0.000in /  0mm 0.00 W/m2
23:14 49.0 °F /  9.4 °C 37.0 °F /  2.8 °C 30.0in /  1015.8hPa Calm     64% 0.000in /  0mm 0.00 W/m2
23:19 49.0 °F /  9.4 °C 37.0 °F /  2.8 °C 30.0in /  1015.8hPa Calm     64% 0.000in /  0mm 0.00 W/m2
23:24 48.0 °F /  8.9 °C 36.0 °F /  2.2 °C 30.0in /  1015.8hPa Calm     63% 0.000in /  0mm 0.00 W/m2
23:29 48.0 °F /  8.9 °C 37.0 °F /  2.8 °C 30.0in /  1015.8hPa SW 2mph /  3.2km/h   64% 0.000in /  0mm 0.00 W/m2
23:34 48.0 °F /  8.9 °C 37.0 °F /  2.8 °C 30.0in /  1015.8hPa SSW 6mph /  9.7km/h 2mph /  3.2km/h 65% 0.000in /  0mm 0.00 W/m2
23:39 48.0 °F /  8.9 °C 37.0 °F /  2.8 °C 30.0in /  1015.8hPa SSW 4mph /  6.4km/h 6mph /  9.7km/h 65% 0.000in /  0mm 0.00 W/m2
El Dorado Weather
Compliments of Weather Underground - 4 mb